createdAt,value
2023-01-19T00:03:57.552Z,996.78
2023-01-19T00:08:58.259Z,996.81
2023-01-19T00:13:59.023Z,996.87
2023-01-19T00:18:59.721Z,996.91
2023-01-19T00:24:00.511Z,996.94
2023-01-19T00:29:01.250Z,996.99
2023-01-19T00:34:01.964Z,997.02
2023-01-19T00:39:02.660Z,997.06
2023-01-19T00:44:03.405Z,997.16
2023-01-19T00:49:04.116Z,997.17
2023-01-19T00:54:04.858Z,997.16
2023-01-19T00:59:05.542Z,997.18
2023-01-19T01:04:06.259Z,997.27
2023-01-19T01:09:06.992Z,997.24
2023-01-19T01:14:07.681Z,997.20
2023-01-19T01:19:08.451Z,997.26
2023-01-19T01:24:09.205Z,997.30
2023-01-19T01:29:09.922Z,997.28
2023-01-19T01:34:10.625Z,997.34
2023-01-19T01:39:11.337Z,997.44
2023-01-19T01:44:12.051Z,997.43
2023-01-19T01:49:12.773Z,997.43
2023-01-19T01:54:13.466Z,997.42
2023-01-19T01:59:14.226Z,997.37
2023-01-19T02:04:14.937Z,997.37
2023-01-19T02:09:15.670Z,997.38
2023-01-19T02:14:16.378Z,997.39
2023-01-19T02:19:17.093Z,997.38
2023-01-19T02:24:17.886Z,997.34
2023-01-19T02:29:18.625Z,997.34
2023-01-19T02:34:19.307Z,997.34
2023-01-19T02:39:20.008Z,997.32
2023-01-19T02:44:20.718Z,997.32
2023-01-19T02:49:21.437Z,997.27
2023-01-19T02:54:22.161Z,997.25
2023-01-19T02:59:22.874Z,997.29
2023-01-19T03:04:23.576Z,997.32
2023-01-19T03:09:24.304Z,997.36
2023-01-19T03:14:25.002Z,997.36
2023-01-19T03:19:25.726Z,997.31
2023-01-19T03:24:26.442Z,997.37
2023-01-19T03:29:27.201Z,997.43
2023-01-19T03:34:27.885Z,997.42
2023-01-19T03:39:28.604Z,997.39
2023-01-19T03:44:29.310Z,997.40
2023-01-19T03:49:30.072Z,997.43
2023-01-19T03:54:30.769Z,997.49
2023-01-19T03:59:31.473Z,997.49
2023-01-19T04:04:32.207Z,997.55
2023-01-19T04:09:32.913Z,997.52
2023-01-19T04:14:40.614Z,997.48
2023-01-19T04:19:34.325Z,997.51
2023-01-19T04:24:35.063Z,997.49
2023-01-19T04:29:35.775Z,997.56
2023-01-19T04:34:36.528Z,997.55
2023-01-19T04:39:37.223Z,997.57
2023-01-19T04:44:37.976Z,997.53
2023-01-19T04:49:38.698Z,997.56
2023-01-19T04:54:39.422Z,997.57
2023-01-19T04:59:40.161Z,997.59
2023-01-19T05:04:40.884Z,997.59
2023-01-19T05:09:41.600Z,997.58
2023-01-19T05:14:42.348Z,997.55
2023-01-19T05:19:43.079Z,997.57
2023-01-19T05:24:44.472Z,997.62
2023-01-19T05:29:44.733Z,997.69
2023-01-19T05:34:45.534Z,997.72
2023-01-19T05:39:46.214Z,997.75
2023-01-19T05:44:46.944Z,997.74
2023-01-19T05:49:47.702Z,997.80
2023-01-19T05:54:48.405Z,998.00
2023-01-19T05:59:49.119Z,998.02
2023-01-19T06:04:49.853Z,998.13
2023-01-19T06:09:50.593Z,998.15
2023-01-19T06:14:51.340Z,998.16
2023-01-19T06:19:52.119Z,998.11
2023-01-19T06:24:52.831Z,998.10
2023-01-19T06:29:53.534Z,998.15
2023-01-19T06:34:54.293Z,998.24
2023-01-19T06:39:55.185Z,998.21
2023-01-19T06:44:55.836Z,998.19
2023-01-19T06:49:56.518Z,998.18
2023-01-19T06:54:57.317Z,998.14
2023-01-19T06:59:57.956Z,998.25
2023-01-19T07:04:58.611Z,998.20
2023-01-19T07:09:59.306Z,998.22
2023-01-19T07:15:00.003Z,998.33
2023-01-19T07:20:00.656Z,998.31
2023-01-19T07:25:01.385Z,998.38
2023-01-19T07:30:02.045Z,998.43
2023-01-19T07:35:02.785Z,998.61
2023-01-19T07:40:03.498Z,998.55
2023-01-19T07:45:04.252Z,998.54
2023-01-19T07:50:04.995Z,998.60
2023-01-19T07:55:05.670Z,998.69
2023-01-19T08:00:06.447Z,998.76
2023-01-19T08:05:07.086Z,998.72
2023-01-19T08:10:07.811Z,998.77
2023-01-19T08:15:08.636Z,998.74
2023-01-19T08:20:09.266Z,998.81
2023-01-19T08:25:09.986Z,998.81
2023-01-19T08:30:10.708Z,998.85
2023-01-19T08:35:11.358Z,998.84
2023-01-19T08:40:12.048Z,998.90
2023-01-19T08:45:12.695Z,999.00
2023-01-19T08:50:13.369Z,998.95
2023-01-19T08:55:14.037Z,998.98
2023-01-19T09:00:14.815Z,998.94
2023-01-19T09:05:15.551Z,998.98
2023-01-19T09:10:16.180Z,999.06
2023-01-19T09:15:16.852Z,999.05
2023-01-19T09:20:17.621Z,999.13
2023-01-19T09:25:18.369Z,999.20
2023-01-19T09:30:19.028Z,999.16
2023-01-19T09:35:19.804Z,999.24
2023-01-19T09:40:20.562Z,999.24
2023-01-19T09:45:21.281Z,999.16
2023-01-19T09:50:22.131Z,999.08
2023-01-19T09:55:22.732Z,999.08
2023-01-19T10:00:23.484Z,999.07
2023-01-19T10:05:24.138Z,999.10
2023-01-19T10:10:25.065Z,999.08
2023-01-19T10:15:32.853Z,999.05
2023-01-19T10:20:26.523Z,999.03
2023-01-19T10:25:27.249Z,998.98
2023-01-19T10:30:27.940Z,998.97
2023-01-19T10:35:28.638Z,998.96
2023-01-19T10:40:29.286Z,998.97
2023-01-19T10:45:30.165Z,998.91
2023-01-19T10:50:30.856Z,998.91
2023-01-19T10:55:31.598Z,998.90
2023-01-19T11:00:32.264Z,998.86
2023-01-19T11:05:33.077Z,998.83
2023-01-19T11:10:33.692Z,998.79
2023-01-19T11:15:34.359Z,998.76
2023-01-19T11:20:35.060Z,998.72
2023-01-19T11:25:35.767Z,998.73
2023-01-19T11:30:36.423Z,998.69
2023-01-19T11:35:37.117Z,998.66
2023-01-19T11:40:37.855Z,998.55
2023-01-19T11:45:38.701Z,998.53
2023-01-19T11:50:39.332Z,998.54
2023-01-19T11:55:39.992Z,998.54
2023-01-19T12:00:40.654Z,998.51
2023-01-19T12:05:41.341Z,998.56
2023-01-19T12:10:41.998Z,998.53
2023-01-19T12:15:42.660Z,998.51
2023-01-19T12:20:43.331Z,998.46
2023-01-19T12:25:44.035Z,998.57
2023-01-19T12:30:44.816Z,998.61
2023-01-19T12:35:45.464Z,998.60
2023-01-19T12:40:46.137Z,998.61
2023-01-19T12:45:46.818Z,998.60
2023-01-19T12:50:47.448Z,998.65
2023-01-19T12:55:48.092Z,998.74
2023-01-19T13:00:48.921Z,998.70
2023-01-19T13:05:49.661Z,998.71
2023-01-19T13:10:50.321Z,998.72
2023-01-19T13:15:51.080Z,998.80
2023-01-19T13:20:51.717Z,998.83
2023-01-19T13:25:52.399Z,998.85
2023-01-19T13:30:53.157Z,998.92
2023-01-19T13:35:53.799Z,998.93
2023-01-19T13:40:54.448Z,998.98
2023-01-19T13:45:55.123Z,999.03
2023-01-19T13:50:55.757Z,999.05
2023-01-19T13:55:56.412Z,999.16
2023-01-19T14:00:57.106Z,999.19
2023-01-19T14:05:57.721Z,999.21
2023-01-19T14:10:58.405Z,999.23
2023-01-19T14:15:59.293Z,999.25
2023-01-19T14:20:59.900Z,999.27
2023-01-19T14:26:00.565Z,999.30
2023-01-19T14:31:01.355Z,999.36
2023-01-19T14:36:02.030Z,999.43
2023-01-19T14:41:02.684Z,999.43
2023-01-19T14:46:03.364Z,999.46
2023-01-19T14:51:04.064Z,999.53
2023-01-19T14:56:04.731Z,999.49
2023-01-19T15:01:05.680Z,999.54
2023-01-19T15:06:06.359Z,999.58
2023-01-19T15:11:07.011Z,999.55
2023-01-19T15:16:07.724Z,999.57
2023-01-19T15:21:08.332Z,999.67
2023-01-19T15:26:08.995Z,999.65
2023-01-19T15:31:09.762Z,999.67
2023-01-19T15:36:10.717Z,999.68
2023-01-19T15:41:10.840Z,999.69
2023-01-19T15:46:11.506Z,999.76
2023-01-19T15:51:12.139Z,999.74
2023-01-19T15:56:12.791Z,999.72
2023-01-19T16:01:13.610Z,999.75
2023-01-19T16:06:14.212Z,999.75
2023-01-19T16:11:14.953Z,999.69
2023-01-19T16:16:15.702Z,999.65
2023-01-19T16:21:16.378Z,999.70
2023-01-19T16:26:17.655Z,999.73
2023-01-19T16:31:18.033Z,999.76
2023-01-19T16:36:18.725Z,999.78
2023-01-19T16:41:19.424Z,999.84
2023-01-19T16:46:20.133Z,999.89
2023-01-19T16:51:20.860Z,999.90
2023-01-19T16:56:22.544Z,999.96
2023-01-19T17:01:22.362Z,999.98
2023-01-19T17:06:23.113Z,999.98
2023-01-19T17:11:23.828Z,999.98
2023-01-19T17:16:24.686Z,999.94
2023-01-19T17:21:25.393Z,1000.04
2023-01-19T17:26:26.134Z,1000.05
2023-01-19T17:31:27.038Z,1000.06
2023-01-19T17:36:27.345Z,1000.07
2023-01-19T17:41:28.031Z,1000.12
2023-01-19T17:46:28.707Z,1000.17
2023-01-19T17:51:29.509Z,1000.21
2023-01-19T17:56:30.417Z,1000.21
2023-01-19T18:01:31.174Z,1000.26
2023-01-19T18:06:31.875Z,1000.30
2023-01-19T18:11:32.571Z,1000.34
2023-01-19T18:16:33.218Z,1000.35
2023-01-19T18:21:33.932Z,1000.42
2023-01-19T18:26:34.671Z,1000.44
2023-01-19T18:31:35.408Z,1000.46
2023-01-19T18:36:36.060Z,1000.47
2023-01-19T18:41:36.777Z,1000.48
2023-01-19T18:46:37.558Z,1000.50
2023-01-19T18:51:38.223Z,1000.55
2023-01-19T18:56:38.932Z,1000.60
2023-01-19T19:01:39.825Z,1000.65
2023-01-19T19:06:40.476Z,1000.73
2023-01-19T19:11:41.228Z,1000.78
2023-01-19T19:16:41.884Z,1000.82
2023-01-19T19:21:42.709Z,1000.90
2023-01-19T19:26:43.388Z,1000.98
2023-01-19T19:31:44.109Z,1001.03
2023-01-19T19:36:44.816Z,1001.10
2023-01-19T19:41:45.527Z,1001.15
2023-01-19T19:46:46.297Z,1001.16
2023-01-19T19:51:46.974Z,1001.20
2023-01-19T19:56:47.688Z,1001.22
2023-01-19T20:01:48.549Z,1001.31
2023-01-19T20:06:49.294Z,1001.33
2023-01-19T20:11:50.007Z,1001.42
2023-01-19T20:16:50.713Z,1001.46
2023-01-19T20:21:51.522Z,1001.46
2023-01-19T20:26:52.283Z,1001.47
2023-01-19T20:31:53.047Z,1001.54
2023-01-19T20:36:53.912Z,1001.61
2023-01-19T20:41:54.232Z,1001.64
2023-01-19T20:46:55.094Z,1001.72
2023-01-19T20:51:55.776Z,1001.81
2023-01-19T20:56:56.523Z,1001.80
2023-01-19T21:01:57.411Z,1001.87
2023-01-19T21:06:58.144Z,1001.94
2023-01-19T21:11:58.856Z,1002.02
2023-01-19T21:16:59.646Z,1002.05
2023-01-19T21:22:07.319Z,1002.16
2023-01-19T21:27:01.028Z,1002.23
2023-01-19T21:32:01.788Z,1002.24
2023-01-19T21:37:02.688Z,1002.26
2023-01-19T21:42:03.360Z,1002.32
2023-01-19T21:47:04.099Z,1002.43
2023-01-19T21:52:04.837Z,1002.48
2023-01-19T21:57:05.642Z,1002.55
2023-01-19T22:02:06.499Z,1002.64
2023-01-19T22:07:07.294Z,1002.71
2023-01-19T22:12:08.036Z,1002.75
2023-01-19T22:17:08.745Z,1002.77
2023-01-19T22:22:09.460Z,1002.84
2023-01-19T22:27:10.179Z,1002.91
2023-01-19T22:32:11.031Z,1002.97
2023-01-19T22:37:11.723Z,1003.04
2023-01-19T22:42:12.448Z,1003.07
2023-01-19T22:47:13.194Z,1003.10
2023-01-19T22:52:13.897Z,1003.14
2023-01-19T22:57:14.636Z,1003.18
2023-01-19T23:02:15.444Z,1003.21
2023-01-19T23:07:16.122Z,1003.22
2023-01-19T23:12:16.831Z,1003.24
2023-01-19T23:17:17.553Z,1003.30
2023-01-19T23:22:18.289Z,1003.31
2023-01-19T23:27:18.979Z,1003.38
2023-01-19T23:32:19.729Z,1003.43
2023-01-19T23:37:20.461Z,1003.52
2023-01-19T23:42:21.172Z,1003.51
2023-01-19T23:47:21.891Z,1003.52
2023-01-19T23:52:22.760Z,1003.49
2023-01-19T23:57:23.514Z,1003.52
